createdAt,value
2022-10-05T00:01:47.854Z,1.90
2022-10-05T00:04:39.308Z,2.40
2022-10-05T00:07:32.607Z,1.77
2022-10-05T00:10:24.884Z,1.82
2022-10-05T00:13:19.435Z,2.10
2022-10-05T00:16:15.997Z,2.08
2022-10-05T00:21:47.670Z,2.20
2022-10-05T00:24:39.561Z,2.30
2022-10-05T00:30:24.624Z,2.50
2022-10-05T00:33:15.848Z,2.67
2022-10-05T00:36:08.931Z,2.70
2022-10-05T00:39:05.439Z,2.27
2022-10-05T00:42:04.588Z,2.12
2022-10-05T00:44:58.709Z,2.20
2022-10-05T00:47:55.238Z,2.27
2022-10-05T00:51:09.981Z,2.40
2022-10-05T00:54:10.984Z,2.55
2022-10-05T00:57:13.451Z,1.90
2022-10-05T01:00:09.708Z,2.27
2022-10-05T01:03:04.458Z,2.15
2022-10-05T01:06:02.596Z,1.92
2022-10-05T01:08:58.343Z,2.20
2022-10-05T01:11:53.165Z,2.00
2022-10-05T01:14:50.381Z,1.90
2022-10-05T01:17:45.995Z,1.65
2022-10-05T01:20:44.484Z,2.35
2022-10-05T01:27:38.551Z,1.85
2022-10-05T01:33:15.651Z,2.08
2022-10-05T01:36:09.894Z,1.72
2022-10-05T01:39:04.583Z,2.10
2022-10-05T01:47:23.601Z,2.02
2022-10-05T01:50:21.440Z,2.30
2022-10-05T01:53:16.043Z,2.10
2022-10-05T01:58:56.508Z,2.10
2022-10-05T02:01:54.935Z,2.35
2022-10-05T02:07:28.540Z,2.00
2022-10-05T02:10:25.466Z,2.08
2022-10-05T02:13:20.008Z,1.80
2022-10-05T02:16:14.724Z,2.10
2022-10-05T02:19:09.542Z,2.02
2022-10-05T02:22:05.621Z,2.12
2022-10-05T02:25:00.567Z,1.90
2022-10-05T02:27:55.395Z,2.00
2022-10-05T02:30:50.337Z,2.00
2022-10-05T02:33:42.337Z,2.05
2022-10-05T02:36:37.813Z,2.35
2022-10-05T02:42:14.724Z,2.17
2022-10-05T02:45:11.362Z,2.00
2022-10-05T02:48:07.557Z,1.98
2022-10-05T02:51:02.779Z,2.10
2022-10-05T02:54:02.570Z,2.00
2022-10-05T02:56:57.638Z,1.80
2022-10-05T02:59:53.163Z,1.90
2022-10-05T03:02:47.808Z,2.40
2022-10-05T03:05:42.153Z,1.75
2022-10-05T03:14:08.169Z,1.90
2022-10-05T03:17:07.733Z,1.87
2022-10-05T03:20:06.926Z,1.95
2022-10-05T03:26:06.257Z,2.00
2022-10-05T03:29:01.503Z,2.40
2022-10-05T03:31:56.980Z,1.90
2022-10-05T03:37:33.670Z,1.72
2022-10-05T03:40:29.525Z,1.82
2022-10-05T03:46:19.299Z,2.12
2022-10-05T03:49:14.709Z,2.02
2022-10-05T03:52:09.492Z,2.20
2022-10-05T03:55:05.017Z,2.22
2022-10-05T03:57:59.407Z,2.27
2022-10-05T04:00:54.149Z,2.10
2022-10-05T04:06:28.215Z,1.90
2022-10-05T04:12:04.650Z,1.75
2022-10-05T04:17:52.406Z,2.12
2022-10-05T04:20:47.761Z,1.75
2022-10-05T04:26:24.162Z,2.33
2022-10-05T04:29:19.419Z,1.90
2022-10-05T04:32:29.708Z,2.42
2022-10-05T04:38:07.293Z,2.17
2022-10-05T04:52:46.726Z,4.40
2022-10-05T04:55:42.666Z,2.17
2022-10-05T05:01:40.006Z,1.98
2022-10-05T05:07:20.827Z,2.25
2022-10-05T05:10:39.828Z,2.00
2022-10-05T05:13:54.268Z,2.10
2022-10-05T05:16:48.495Z,2.33
2022-10-05T05:19:48.394Z,2.37
2022-10-05T05:22:43.537Z,2.42
2022-10-05T05:25:40.855Z,2.33
2022-10-05T05:31:16.142Z,2.83
2022-10-05T05:34:10.950Z,2.72
2022-10-05T05:37:05.812Z,2.75
2022-10-05T05:40:01.998Z,2.42
2022-10-05T05:42:58.471Z,2.50
2022-10-05T05:45:53.027Z,2.33
2022-10-05T05:51:25.830Z,2.77
2022-10-05T05:54:26.285Z,3.27
2022-10-05T05:57:22.118Z,2.87
2022-10-05T06:00:19.934Z,2.80
2022-10-05T06:03:16.687Z,2.33
2022-10-05T06:06:11.814Z,2.60
2022-10-05T06:11:55.212Z,2.60
2022-10-05T06:14:51.085Z,2.67
2022-10-05T06:17:46.318Z,2.70
2022-10-05T06:23:24.780Z,3.00
2022-10-05T06:26:26.977Z,2.90
2022-10-05T06:29:21.687Z,2.80
2022-10-05T06:32:16.194Z,3.20
2022-10-05T06:35:14.636Z,3.42
2022-10-05T06:41:06.697Z,3.00
2022-10-05T06:44:04.181Z,2.92
2022-10-05T06:47:13.540Z,2.58
2022-10-05T06:53:28.434Z,3.00
2022-10-05T06:56:23.858Z,2.77
2022-10-05T06:59:18.870Z,2.80
2022-10-05T07:02:14.667Z,2.95
2022-10-05T07:05:44.889Z,2.92
2022-10-05T07:11:28.144Z,2.98
2022-10-05T07:17:17.310Z,2.77
2022-10-05T07:20:17.255Z,3.12
2022-10-05T07:23:23.666Z,2.83
2022-10-05T07:26:19.625Z,3.20
2022-10-05T07:32:16.246Z,3.25
2022-10-05T07:38:07.543Z,2.90
2022-10-05T07:46:30.959Z,2.55
2022-10-05T07:49:30.050Z,2.60
2022-10-05T07:52:25.473Z,3.45
2022-10-05T07:55:20.933Z,2.45
2022-10-05T07:58:17.097Z,2.35
2022-10-05T08:01:14.566Z,2.30
2022-10-05T08:04:11.726Z,2.30
2022-10-05T08:07:06.447Z,2.52
2022-10-05T08:12:53.830Z,2.70
2022-10-05T08:15:48.663Z,2.58
2022-10-05T08:18:50.038Z,2.55
2022-10-05T08:21:44.720Z,2.67
2022-10-05T08:27:25.554Z,2.33
2022-10-05T08:30:19.508Z,2.40
2022-10-05T08:36:05.514Z,2.70
2022-10-05T08:38:59.750Z,2.80
2022-10-05T08:42:18.281Z,2.77
2022-10-05T08:48:40.695Z,3.08
2022-10-05T08:51:41.389Z,2.72
2022-10-05T08:57:27.454Z,2.30
2022-10-05T09:00:22.127Z,2.08
2022-10-05T09:03:23.308Z,2.15
2022-10-05T09:06:51.777Z,2.20
2022-10-05T09:10:23.135Z,2.08
2022-10-05T09:14:13.045Z,1.90
2022-10-05T09:20:15.271Z,1.90
2022-10-05T09:26:04.834Z,1.40
2022-10-05T09:31:45.503Z,1.57
2022-10-05T09:37:56.751Z,1.40
2022-10-05T09:41:25.855Z,1.75
2022-10-05T09:47:34.487Z,1.65
2022-10-05T09:50:51.260Z,1.90
2022-10-05T09:57:22.825Z,2.02
2022-10-05T10:00:28.077Z,1.77
2022-10-05T10:04:08.111Z,1.70
2022-10-05T10:07:51.138Z,1.90
2022-10-05T10:17:47.999Z,2.35
2022-10-05T10:23:50.536Z,2.80
2022-10-05T10:30:00.755Z,2.00
2022-10-05T10:33:32.248Z,2.33
2022-10-05T10:39:17.879Z,2.08
2022-10-05T10:42:29.294Z,2.05
2022-10-05T10:45:33.598Z,1.82
2022-10-05T10:52:23.894Z,2.17
2022-10-05T11:01:53.331Z,3.10
2022-10-05T11:08:28.640Z,3.10
2022-10-05T11:11:42.622Z,3.10
2022-10-05T11:14:59.687Z,3.30
2022-10-05T11:18:02.102Z,2.67
2022-10-05T11:21:21.010Z,2.85
2022-10-05T11:28:25.700Z,3.58
2022-10-05T11:35:28.127Z,3.90
2022-10-05T11:38:46.466Z,3.95
2022-10-05T11:42:09.674Z,3.10
2022-10-05T11:48:28.210Z,4.50
2022-10-05T11:54:58.731Z,3.83
2022-10-05T11:57:37.876Z,4.55
2022-10-05T12:00:35.109Z,5.28
2022-10-05T12:03:36.068Z,4.28
2022-10-05T12:06:39.765Z,4.60
2022-10-05T12:09:42.505Z,4.22
2022-10-05T12:12:37.838Z,4.80
2022-10-05T12:18:21.757Z,4.40
2022-10-05T12:21:19.047Z,4.67
2022-10-05T12:26:53.155Z,4.28
2022-10-05T12:32:27.023Z,4.42
2022-10-05T12:35:36.640Z,4.75
2022-10-05T12:38:19.686Z,5.03
2022-10-05T12:44:09.839Z,4.00
2022-10-05T12:47:04.239Z,4.42
2022-10-05T12:50:05.011Z,4.47
2022-10-05T12:53:05.955Z,3.47
2022-10-05T12:56:02.530Z,4.35
2022-10-05T13:01:46.970Z,4.37
2022-10-05T13:07:45.751Z,5.00
2022-10-05T13:10:40.565Z,4.37
2022-10-05T13:16:35.442Z,4.25
2022-10-05T13:19:39.414Z,4.55
2022-10-05T13:22:43.630Z,4.85
2022-10-05T13:25:38.586Z,3.92
2022-10-05T13:28:33.599Z,4.50
2022-10-05T13:31:27.628Z,4.30
2022-10-05T13:34:29.044Z,3.33
2022-10-05T13:37:23.629Z,4.10
2022-10-05T13:40:21.844Z,4.28
2022-10-05T13:43:17.802Z,4.45
2022-10-05T13:46:13.864Z,4.33
2022-10-05T13:49:12.110Z,4.17
2022-10-05T13:52:09.026Z,4.10
2022-10-05T13:55:04.445Z,3.47
2022-10-05T13:58:00.159Z,4.28
2022-10-05T14:00:54.661Z,4.25
2022-10-05T14:04:05.913Z,3.17
2022-10-05T14:06:57.647Z,3.70
2022-10-05T14:09:52.161Z,3.85
2022-10-05T14:12:46.119Z,3.52
2022-10-05T14:15:42.097Z,3.80
2022-10-05T14:18:32.849Z,3.62
2022-10-05T14:21:25.982Z,3.02
2022-10-05T14:24:43.103Z,3.92
2022-10-05T14:27:27.776Z,4.03
2022-10-05T14:30:25.889Z,3.60
2022-10-05T14:33:18.728Z,3.00
2022-10-05T14:36:16.449Z,3.08
2022-10-05T14:39:14.285Z,4.08
2022-10-05T14:45:14.890Z,3.60
2022-10-05T14:48:12.407Z,3.47
2022-10-05T14:54:01.203Z,3.55
2022-10-05T14:56:57.577Z,3.65
2022-10-05T15:00:13.160Z,3.12
2022-10-05T15:03:30.411Z,3.75
2022-10-05T15:06:28.258Z,4.03
2022-10-05T15:09:38.012Z,2.70
2022-10-05T15:12:34.876Z,2.87
2022-10-05T15:15:32.476Z,3.70
2022-10-05T15:18:39.301Z,3.30
2022-10-05T15:21:42.038Z,3.00
2022-10-05T15:24:42.664Z,3.00
2022-10-05T15:27:34.569Z,2.98
2022-10-05T15:30:25.951Z,3.00
2022-10-05T15:33:21.775Z,3.08
2022-10-05T15:39:02.975Z,3.27
2022-10-05T15:42:02.078Z,3.25
2022-10-05T15:45:01.742Z,3.50
2022-10-05T15:47:57.678Z,3.08
2022-10-05T15:50:54.244Z,3.10
2022-10-05T15:53:49.873Z,3.85
2022-10-05T15:56:43.437Z,3.70
2022-10-05T15:59:38.736Z,3.17
2022-10-05T16:02:33.592Z,3.10
2022-10-05T16:05:54.397Z,3.00
2022-10-05T16:08:58.755Z,2.72
2022-10-05T16:12:02.064Z,3.05
2022-10-05T16:17:53.417Z,3.02
2022-10-05T16:20:50.827Z,3.33
2022-10-05T16:26:44.762Z,3.08
2022-10-05T16:29:43.481Z,3.52
2022-10-05T16:32:37.721Z,3.08
2022-10-05T16:35:35.630Z,3.77
2022-10-05T16:38:31.715Z,3.50
2022-10-05T16:41:28.148Z,3.05
2022-10-05T16:44:24.732Z,3.92
2022-10-05T16:47:32.750Z,3.47
2022-10-05T16:50:28.487Z,3.08
2022-10-05T16:53:23.369Z,3.60
2022-10-05T16:56:17.478Z,3.37
2022-10-05T17:01:58.974Z,3.65
2022-10-05T17:04:54.927Z,3.77
2022-10-05T17:07:58.577Z,3.80
2022-10-05T17:11:14.591Z,3.67
2022-10-05T17:14:16.239Z,2.90
2022-10-05T17:17:28.148Z,3.60
2022-10-05T17:20:42.399Z,3.25
2022-10-05T17:23:35.438Z,3.70
2022-10-05T17:26:45.098Z,3.25
2022-10-05T17:29:49.911Z,3.58
2022-10-05T17:32:53.082Z,3.40
2022-10-05T17:36:08.622Z,3.40
2022-10-05T17:39:14.471Z,3.45
2022-10-05T17:42:42.229Z,3.35
2022-10-05T17:46:01.414Z,3.60
2022-10-05T17:49:33.882Z,3.50
2022-10-05T17:52:45.461Z,3.98
2022-10-05T17:55:46.779Z,3.65
2022-10-05T17:59:10.974Z,3.70
2022-10-05T18:02:18.391Z,3.87
2022-10-05T18:05:28.621Z,3.75
2022-10-05T18:08:33.078Z,3.22
2022-10-05T18:11:40.344Z,3.05
2022-10-05T18:14:34.045Z,3.22
2022-10-05T18:17:45.498Z,3.25
2022-10-05T18:20:38.722Z,4.08
2022-10-05T18:23:32.590Z,3.10
2022-10-05T18:26:29.038Z,3.42
2022-10-05T18:29:45.996Z,3.50
2022-10-05T18:36:04.477Z,3.47
2022-10-05T18:38:59.907Z,3.70
2022-10-05T18:41:57.145Z,3.80
2022-10-05T18:44:51.490Z,3.12
2022-10-05T18:47:46.806Z,3.20
2022-10-05T18:50:43.134Z,4.08
2022-10-05T18:53:39.082Z,3.12
2022-10-05T18:56:35.861Z,3.45
2022-10-05T18:59:39.085Z,4.28
2022-10-05T19:02:34.390Z,2.70
2022-10-05T19:08:39.280Z,3.52
2022-10-05T19:11:34.081Z,4.25
2022-10-05T19:14:32.704Z,3.62
2022-10-05T19:17:28.379Z,3.52
2022-10-05T19:20:25.034Z,3.92
2022-10-05T19:23:27.454Z,4.03
2022-10-05T19:26:22.736Z,4.30
2022-10-05T19:29:18.660Z,3.33
2022-10-05T19:32:14.156Z,3.35
2022-10-05T19:35:16.455Z,4.22
2022-10-05T19:38:24.092Z,4.35
2022-10-05T19:41:18.824Z,4.87
2022-10-05T19:44:20.467Z,4.80
2022-10-05T19:47:19.965Z,4.60
2022-10-05T19:50:33.720Z,4.45
2022-10-05T19:53:31.686Z,4.92
2022-10-05T19:59:19.555Z,4.22
2022-10-05T20:02:14.720Z,4.75
2022-10-05T20:05:10.435Z,4.40
2022-10-05T20:08:02.106Z,4.45
2022-10-05T20:11:09.098Z,4.83
2022-10-05T20:14:22.245Z,4.78
2022-10-05T20:17:47.381Z,5.28
2022-10-05T20:20:44.552Z,5.15
2022-10-05T20:23:36.325Z,4.87
2022-10-05T20:26:59.511Z,4.85
2022-10-05T20:29:52.020Z,4.97
2022-10-05T20:32:44.859Z,5.45
2022-10-05T20:35:36.366Z,5.67
2022-10-05T20:38:27.894Z,5.10
2022-10-05T20:41:19.868Z,5.30
2022-10-05T20:44:11.342Z,5.28
2022-10-05T20:47:03.065Z,5.50
2022-10-05T20:50:00.358Z,5.53
2022-10-05T20:52:53.239Z,5.83
2022-10-05T20:55:47.175Z,4.58
2022-10-05T20:58:38.487Z,5.05
2022-10-05T21:01:32.018Z,4.72
2022-10-05T21:04:25.539Z,5.25
2022-10-05T21:07:19.919Z,5.47
2022-10-05T21:10:20.965Z,5.00
2022-10-05T21:13:12.028Z,5.22
2022-10-05T21:16:08.048Z,5.20
2022-10-05T21:19:02.480Z,5.80
2022-10-05T21:24:48.355Z,5.72
2022-10-05T21:27:31.576Z,5.37
2022-10-05T21:30:27.293Z,5.60
2022-10-05T21:33:18.831Z,6.08
2022-10-05T21:39:06.125Z,5.40
2022-10-05T21:41:57.572Z,5.35
2022-10-05T21:44:48.993Z,5.28
2022-10-05T21:47:45.032Z,5.30
2022-10-05T21:50:40.768Z,5.75
2022-10-05T21:56:23.415Z,5.67
2022-10-05T21:59:18.827Z,5.15
2022-10-05T22:04:59.105Z,5.25
2022-10-05T22:07:52.031Z,5.15
2022-10-05T22:10:44.236Z,5.33
2022-10-05T22:13:44.005Z,4.85
2022-10-05T22:16:37.551Z,4.80
2022-10-05T22:19:29.414Z,4.85
2022-10-05T22:22:24.198Z,4.28
2022-10-05T22:25:16.182Z,4.50
2022-10-05T22:28:11.854Z,3.95
2022-10-05T22:34:00.921Z,4.10
2022-10-05T22:37:02.913Z,4.22
2022-10-05T22:39:55.740Z,4.87
2022-10-05T22:45:32.630Z,4.37
2022-10-05T22:48:23.256Z,4.37
2022-10-05T22:51:14.444Z,4.20
2022-10-05T22:54:06.277Z,3.70
2022-10-05T22:56:57.540Z,3.98
2022-10-05T22:59:50.404Z,4.33
2022-10-05T23:05:30.137Z,4.33
2022-10-05T23:14:00.094Z,4.75
2022-10-05T23:16:52.220Z,3.87
2022-10-05T23:19:47.598Z,3.98
2022-10-05T23:22:40.059Z,4.00
2022-10-05T23:25:33.357Z,3.75
2022-10-05T23:28:34.660Z,3.75
2022-10-05T23:31:38.151Z,3.67
2022-10-05T23:34:30.297Z,3.50
2022-10-05T23:37:25.175Z,4.15
2022-10-05T23:40:21.929Z,4.08
2022-10-05T23:43:09.774Z,3.98
2022-10-05T23:46:03.751Z,4.20
2022-10-05T23:48:55.398Z,3.80
2022-10-05T23:51:50.823Z,4.08
2022-10-05T23:54:42.333Z,4.40
2022-10-05T23:57:33.758Z,5.15
